sensor_id;sensor_type;location;lat;lon;timestamp;pressure;altitude;pressure_sealevel;temperature;humidity
8366;BME280;4220;42.502;24.188;2022-10-30T00:00:20;95976.47;;;8.03;97.68
8366;BME280;4220;42.502;24.188;2022-10-30T00:02:47;95976.84;;;8.00;96.98
8366;BME280;4220;42.502;24.188;2022-10-30T00:05:14;95981.84;;;7.95;97.26
8366;BME280;4220;42.502;24.188;2022-10-30T00:07:42;95980.94;;;8.03;96.76
8366;BME280;4220;42.502;24.188;2022-10-30T00:10:09;95976.09;;;7.91;97.13
8366;BME280;4220;42.502;24.188;2022-10-30T00:12:36;95974.75;;;7.81;98.22
8366;BME280;4220;42.502;24.188;2022-10-30T00:15:04;95972.47;;;7.78;98.59
8366;BME280;4220;42.502;24.188;2022-10-30T00:17:30;95964.28;;;7.73;98.96
8366;BME280;4220;42.502;24.188;2022-10-30T00:19:58;95975.38;;;7.83;98.83
8366;BME280;4220;42.502;24.188;2022-10-30T00:22:25;95968.09;;;7.85;99.48
8366;BME280;4220;42.502;24.188;2022-10-30T00:24:53;95967.72;;;7.44;100.00
8366;BME280;4220;42.502;24.188;2022-10-30T00:27:20;95967.06;;;7.42;100.00
8366;BME280;4220;42.502;24.188;2022-10-30T00:29:47;95967.34;;;7.47;100.00
8366;BME280;4220;42.502;24.188;2022-10-30T00:32:14;95955.44;;;7.37;100.00
8366;BME280;4220;42.502;24.188;2022-10-30T00:34:41;95952.81;;;7.37;100.00
8366;BME280;4220;42.502;24.188;2022-10-30T00:37:08;95955.16;;;7.46;100.00
8366;BME280;4220;42.502;24.188;2022-10-30T00:39:34;95940.59;;;7.50;100.00
8366;BME280;4220;42.502;24.188;2022-10-30T00:42:03;95950.06;;;7.45;100.00
8366;BME280;4220;42.502;24.188;2022-10-30T00:44:44;95950.44;;;7.42;100.00
8366;BME280;4220;42.502;24.188;2022-10-30T00:47:16;95945.16;;;7.42;100.00
8366;BME280;4220;42.502;24.188;2022-10-30T00:49:50;95955.44;;;7.51;100.00
8366;BME280;4220;42.502;24.188;2022-10-30T00:52:20;95949.06;;;7.46;99.91
8366;BME280;4220;42.502;24.188;2022-10-30T00:54:50;95956.72;;;7.41;100.00
8366;BME280;4220;42.502;24.188;2022-10-30T00:57:19;95894.00;;;7.13;100.00
8366;BME280;4220;42.502;24.188;2022-10-30T00:59:46;95932.25;;;7.47;99.54
8366;BME280;4220;42.502;24.188;2022-10-30T01:02:15;95937.59;;;7.24;99.34
8366;BME280;4220;42.502;24.188;2022-10-30T01:04:43;95934.31;;;7.37;99.82
8366;BME280;4220;42.502;24.188;2022-10-30T01:07:14;95939.19;;;7.25;100.00
8366;BME280;4220;42.502;24.188;2022-10-30T01:09:42;95937.59;;;7.24;100.00
8366;BME280;4220;42.502;24.188;2022-10-30T01:12:09;95931.97;;;7.27;100.00
8366;BME280;4220;42.502;24.188;2022-10-30T01:14:40;95937.13;;;7.35;99.42
8366;BME280;4220;42.502;24.188;2022-10-30T01:17:21;95928.38;;;7.35;99.46
8366;BME280;4220;42.502;24.188;2022-10-30T01:20:00;95930.03;;;7.36;100.00
8366;BME280;4220;42.502;24.188;2022-10-30T01:22:41;95927.13;;;7.31;100.00
8366;BME280;4220;42.502;24.188;2022-10-30T01:25:23;95927.41;;;7.36;100.00
8366;BME280;4220;42.502;24.188;2022-10-30T01:27:58;95922.59;;;7.39;99.98
8366;BME280;4220;42.502;24.188;2022-10-30T01:30:42;95913.84;;;7.39;99.66
8366;BME280;4220;42.502;24.188;2022-10-30T01:33:24;95912.31;;;7.44;99.85
8366;BME280;4220;42.502;24.188;2022-10-30T01:36:02;95910.75;;;7.50;99.23
8366;BME280;4220;42.502;24.188;2022-10-30T01:38:35;95917.03;;;7.49;99.07
8366;BME280;4220;42.502;24.188;2022-10-30T01:41:04;95907.75;;;7.38;99.28
8366;BME280;4220;42.502;24.188;2022-10-30T01:43:31;95907.38;;;7.41;99.34
8366;BME280;4220;42.502;24.188;2022-10-30T01:46:10;95907.75;;;7.38;98.93
8366;BME280;4220;42.502;24.188;2022-10-30T01:48:54;95899.13;;;7.30;98.26
8366;BME280;4220;42.502;24.188;2022-10-30T01:51:34;95891.56;;;7.27;98.28
8366;BME280;4220;42.502;24.188;2022-10-30T01:54:15;95896.19;;;7.24;98.66
8366;BME280;4220;42.502;24.188;2022-10-30T01:56:54;95893.56;;;7.24;98.00
8366;BME280;4220;42.502;24.188;2022-10-30T01:59:29;95890.09;;;7.24;98.34
8366;BME280;4220;42.502;24.188;2022-10-30T02:01:58;95841.59;;;6.96;98.08
8366;BME280;4220;42.502;24.188;2022-10-30T02:04:25;95890.91;;;7.24;98.61
8366;BME280;4220;42.502;24.188;2022-10-30T02:06:52;95888.63;;;7.07;98.89
8366;BME280;4220;42.502;24.188;2022-10-30T02:09:19;95880.97;;;6.97;100.00
8366;BME280;4220;42.502;24.188;2022-10-30T02:11:46;95882.88;;;7.03;100.00
8366;BME280;4220;42.502;24.188;2022-10-30T02:14:17;95871.06;;;6.99;99.92
8366;BME280;4220;42.502;24.188;2022-10-30T02:16:48;95869.06;;;7.01;100.00
8366;BME280;4220;42.502;24.188;2022-10-30T02:19:17;95878.97;;;6.99;100.00
8366;BME280;4220;42.502;24.188;2022-10-30T02:21:45;95880.13;;;6.82;98.71
8366;BME280;4220;42.502;24.188;2022-10-30T02:24:12;95876.47;;;6.83;98.09
8366;BME280;4220;42.502;24.188;2022-10-30T02:26:39;95884.03;;;6.86;97.72
8366;BME280;4220;42.502;24.188;2022-10-30T02:29:06;95883.34;;;6.92;96.23
8366;BME280;4220;42.502;24.188;2022-10-30T02:31:33;95876.38;;;6.77;95.82
8366;BME280;4220;42.502;24.188;2022-10-30T02:34:00;95871.47;;;6.74;96.06
8366;BME280;4220;42.502;24.188;2022-10-30T02:36:27;95822.84;;;6.39;96.20
8366;BME280;4220;42.502;24.188;2022-10-30T02:38:55;95869.56;;;6.68;96.37
8366;BME280;4220;42.502;24.188;2022-10-30T02:41:22;95870.25;;;6.62;97.20
8366;BME280;4220;42.502;24.188;2022-10-30T02:43:49;95885.72;;;6.42;100.00
8366;BME280;4220;42.502;24.188;2022-10-30T02:46:16;95875.38;;;6.18;100.00
8366;BME280;4220;42.502;24.188;2022-10-30T02:48:43;95863.03;;;5.87;100.00
8366;BME280;4220;42.502;24.188;2022-10-30T02:51:09;95871.94;;;5.86;100.00
8366;BME280;4220;42.502;24.188;2022-10-30T02:53:37;95826.00;;;5.58;100.00
8366;BME280;4220;42.502;24.188;2022-10-30T02:56:07;95870.59;;;5.82;100.00
8366;BME280;4220;42.502;24.188;2022-10-30T02:58:35;95875.22;;;5.88;100.00
8366;BME280;4220;42.502;24.188;2022-10-30T03:01:06;95833.19;;;5.72;100.00
8366;BME280;4220;42.502;24.188;2022-10-30T03:03:33;95866.53;;;6.11;100.00
8366;BME280;4220;42.502;24.188;2022-10-30T03:06:00;95872.69;;;6.26;100.00
8366;BME280;4220;42.502;24.188;2022-10-30T03:08:27;95866.66;;;6.40;100.00
8366;BME280;4220;42.502;24.188;2022-10-30T03:11:06;95863.19;;;6.39;100.00
8366;BME280;4220;42.502;24.188;2022-10-30T03:13:34;95844.06;;;6.23;100.00
8366;BME280;4220;42.502;24.188;2022-10-30T03:16:01;95869.56;;;6.45;100.00
8366;BME280;4220;42.502;24.188;2022-10-30T03:18:28;95872.78;;;6.32;100.00
8366;BME280;4220;42.502;24.188;2022-10-30T03:20:56;95872.03;;;6.46;100.00
8366;BME280;4220;42.502;24.188;2022-10-30T03:23:23;95825.91;;;6.28;100.00
8366;BME280;4220;42.502;24.188;2022-10-30T03:25:51;95873.97;;;6.52;100.00
8366;BME280;4220;42.502;24.188;2022-10-30T03:28:20;95876.25;;;6.55;100.00
8366;BME280;4220;42.502;24.188;2022-10-30T03:30:47;95879.22;;;6.52;100.00
8366;BME280;4220;42.502;24.188;2022-10-30T03:33:14;95881.31;;;6.57;100.00
8366;BME280;4220;42.502;24.188;2022-10-30T03:35:42;95888.69;;;6.62;100.00
8366;BME280;4220;42.502;24.188;2022-10-30T03:38:09;95883.66;;;6.52;100.00
8366;BME280;4220;42.502;24.188;2022-10-30T03:40:36;95882.69;;;6.53;99.05
8366;BME280;4220;42.502;24.188;2022-10-30T03:43:03;95883.66;;;6.52;97.34
8366;BME280;4220;42.502;24.188;2022-10-30T03:45:33;95882.41;;;6.48;95.89
8366;BME280;4220;42.502;24.188;2022-10-30T03:48:00;95878.94;;;6.47;96.22
8366;BME280;4220;42.502;24.188;2022-10-30T03:50:27;95879.75;;;6.48;96.43
8366;BME280;4220;42.502;24.188;2022-10-30T03:52:54;95884.69;;;6.51;97.04
8366;BME280;4220;42.502;24.188;2022-10-30T03:55:21;95881.75;;;6.46;97.65
8366;BME280;4220;42.502;24.188;2022-10-30T03:57:49;95884.69;;;6.51;97.25
8366;BME280;4220;42.502;24.188;2022-10-30T04:00:16;95876.31;;;6.47;97.09
8366;BME280;4220;42.502;24.188;2022-10-30T04:02:46;95873.47;;;6.49;97.29
8366;BME280;4220;42.502;24.188;2022-10-30T04:05:13;95880.59;;;6.48;96.92
8366;BME280;4220;42.502;24.188;2022-10-30T04:07:40;95879.47;;;6.43;97.87
8366;BME280;4220;42.502;24.188;2022-10-30T04:10:08;95880.00;;;6.38;97.99
8366;BME280;4220;42.502;24.188;2022-10-30T04:12:35;95871.63;;;6.35;98.47
8366;BME280;4220;42.502;24.188;2022-10-30T04:15:02;95869.28;;;6.40;98.17
8366;BME280;4220;42.502;24.188;2022-10-30T04:17:29;95871.28;;;6.38;97.82
8366;BME280;4220;42.502;24.188;2022-10-30T04:19:58;95869.91;;;6.19;99.50
8366;BME280;4220;42.502;24.188;2022-10-30T04:22:25;95853.72;;;6.08;99.92
8366;BME280;4220;42.502;24.188;2022-10-30T04:24:51;95867.69;;;6.08;100.00
8366;BME280;4220;42.502;24.188;2022-10-30T04:27:19;95860.84;;;5.99;100.00
8366;BME280;4220;42.502;24.188;2022-10-30T04:29:46;95870.38;;;6.00;100.00
8366;BME280;4220;42.502;24.188;2022-10-30T04:32:13;95849.00;;;5.95;100.00
8366;BME280;4220;42.502;24.188;2022-10-30T04:34:40;95860.44;;;6.10;100.00
8366;BME280;4220;42.502;24.188;2022-10-30T04:37:08;95854.72;;;6.07;100.00
8366;BME280;4220;42.502;24.188;2022-10-30T04:39:35;95860.59;;;5.86;99.62
8366;BME280;4220;42.502;24.188;2022-10-30T04:42:01;95869.09;;;5.96;100.00
8366;BME280;4220;42.502;24.188;2022-10-30T04:44:28;95865.53;;;5.89;100.00
8366;BME280;4220;42.502;24.188;2022-10-30T04:46:55;95866.09;;;5.68;100.00
8366;BME280;4220;42.502;24.188;2022-10-30T04:49:22;95868.72;;;5.68;100.00
8366;BME280;4220;42.502;24.188;2022-10-30T04:51:49;95875.09;;;5.74;100.00
8366;BME280;4220;42.502;24.188;2022-10-30T04:54:17;95873.53;;;5.65;100.00
8366;BME280;4220;42.502;24.188;2022-10-30T04:56:45;95870.44;;;5.53;100.00
8366;BME280;4220;42.502;24.188;2022-10-30T04:59:12;95857.06;;;5.63;100.00
8366;BME280;4220;42.502;24.188;2022-10-30T05:01:39;95873.75;;;5.78;100.00
8366;BME280;4220;42.502;24.188;2022-10-30T05:04:05;95865.53;;;5.81;100.00
8366;BME280;4220;42.502;24.188;2022-10-30T05:06:32;95871.66;;;5.73;100.00
8366;BME280;4220;42.502;24.188;2022-10-30T05:08:59;95867.53;;;5.79;100.00
8366;BME280;4220;42.502;24.188;2022-10-30T05:11:27;95871.31;;;5.76;100.00
8366;BME280;4220;42.502;24.188;2022-10-30T05:13:55;95877.69;;;5.90;100.00
8366;BME280;4220;42.502;24.188;2022-10-30T05:16:21;95883.38;;;6.02;100.00
8366;BME280;4220;42.502;24.188;2022-10-30T05:18:48;95833.97;;;5.73;100.00
8366;BME280;4220;42.502;24.188;2022-10-30T05:21:15;95884.47;;;6.07;100.00
8366;BME280;4220;42.502;24.188;2022-10-30T05:23:42;95884.63;;;6.14;100.00
8366;BME280;4220;42.502;24.188;2022-10-30T05:26:08;95892.09;;;6.25;100.00
8366;BME280;4220;42.502;24.188;2022-10-30T05:28:37;95885.97;;;6.32;100.00
8366;BME280;4220;42.502;24.188;2022-10-30T05:31:04;95883.97;;;6.34;98.17
8366;BME280;4220;42.502;24.188;2022-10-30T05:33:31;95880.66;;;6.40;95.38
8366;BME280;4220;42.502;24.188;2022-10-30T05:35:57;95897.38;;;6.47;93.53
8366;BME280;4220;42.502;24.188;2022-10-30T05:38:24;95905.19;;;6.41;93.95
8366;BME280;4220;42.502;24.188;2022-10-30T05:40:51;95904.16;;;6.42;94.14
8366;BME280;4220;42.502;24.188;2022-10-30T05:43:18;95902.13;;;6.52;94.79
8366;BME280;4220;42.502;24.188;2022-10-30T05:45:48;95890.59;;;6.53;95.57
8366;BME280;4220;42.502;24.188;2022-10-30T05:48:15;95895.16;;;6.59;96.56
8366;BME280;4220;42.502;24.188;2022-10-30T05:50:42;95876.53;;;6.38;96.95
8366;BME280;4220;42.502;24.188;2022-10-30T05:53:09;95894.22;;;6.52;97.95
8366;BME280;4220;42.502;24.188;2022-10-30T05:55:36;95894.75;;;6.70;97.96
8366;BME280;4220;42.502;24.188;2022-10-30T05:58:04;95908.59;;;6.87;98.19
8366;BME280;4220;42.502;24.188;2022-10-30T06:00:33;95898.69;;;7.03;97.47
8366;BME280;4220;42.502;24.188;2022-10-30T06:03:03;95904.63;;;7.20;94.92
8366;BME280;4220;42.502;24.188;2022-10-30T06:05:32;95884.91;;;7.16;93.24
8366;BME280;4220;42.502;24.188;2022-10-30T06:08:00;95888.81;;;7.20;93.05
8366;BME280;4220;42.502;24.188;2022-10-30T06:10:27;95889.91;;;7.25;93.61
8366;BME280;4220;42.502;24.188;2022-10-30T06:12:56;95879.47;;;7.32;93.76
8366;BME280;4220;42.502;24.188;2022-10-30T06:15:24;95890.81;;;7.47;94.34
8366;BME280;4220;42.502;24.188;2022-10-30T06:17:51;95861.69;;;7.41;93.68
8366;BME280;4220;42.502;24.188;2022-10-30T06:20:21;95856.41;;;7.55;92.25
8366;BME280;4220;42.502;24.188;2022-10-30T06:22:52;95893.22;;;7.93;91.10
8366;BME280;4220;42.502;24.188;2022-10-30T06:25:20;95895.00;;;8.07;89.99
8366;BME280;4220;42.502;24.188;2022-10-30T06:27:47;95898.63;;;8.20;88.60
8366;BME280;4220;42.502;24.188;2022-10-30T06:30:14;95900.19;;;8.29;89.02
8366;BME280;4220;42.502;24.188;2022-10-30T06:32:41;95888.03;;;8.35;89.03
8366;BME280;4220;42.502;24.188;2022-10-30T06:35:08;95900.84;;;8.52;88.24
8366;BME280;4220;42.502;24.188;2022-10-30T06:37:36;95896.22;;;8.61;87.64
8366;BME280;4220;42.502;24.188;2022-10-30T06:40:06;95888.41;;;8.74;87.57
8366;BME280;4220;42.502;24.188;2022-10-30T06:42:41;95874.88;;;8.84;87.71
8366;BME280;4220;42.502;24.188;2022-10-30T06:45:09;95889.44;;;9.01;87.15
8366;BME280;4220;42.502;24.188;2022-10-30T06:47:36;95896.66;;;9.13;87.26
8366;BME280;4220;42.502;24.188;2022-10-30T06:50:04;95888.81;;;9.27;86.26
8366;BME280;4220;42.502;24.188;2022-10-30T06:52:31;95890.72;;;9.39;85.74
8366;BME280;4220;42.502;24.188;2022-10-30T06:54:59;95889.94;;;9.45;85.51
8366;BME280;4220;42.502;24.188;2022-10-30T06:57:26;95883.41;;;9.41;85.58
8366;BME280;4220;42.502;24.188;2022-10-30T06:59:53;95867.97;;;9.51;84.87
8366;BME280;4220;42.502;24.188;2022-10-30T07:02:20;95878.66;;;9.64;85.06
8366;BME280;4220;42.502;24.188;2022-10-30T07:04:46;95881.19;;;9.85;85.18
8366;BME280;4220;42.502;24.188;2022-10-30T07:07:14;95880.47;;;10.05;84.63
8366;BME280;4220;42.502;24.188;2022-10-30T07:09:41;95874.00;;;10.14;83.62
8366;BME280;4220;42.502;24.188;2022-10-30T07:12:09;95875.78;;;9.59;85.83
8366;BME280;4220;42.502;24.188;2022-10-30T07:14:36;95845.31;;;9.42;86.03
8366;BME280;4220;42.502;24.188;2022-10-30T07:17:03;95868.81;;;9.58;86.32
8366;BME280;4220;42.502;24.188;2022-10-30T07:19:30;95873.34;;;9.64;87.32
8366;BME280;4220;42.502;24.188;2022-10-30T07:21:57;95858.28;;;9.65;88.17
8366;BME280;4220;42.502;24.188;2022-10-30T07:24:23;95852.19;;;9.71;88.66
8366;BME280;4220;42.502;24.188;2022-10-30T07:26:50;95860.03;;;9.92;89.14
8366;BME280;4220;42.502;24.188;2022-10-30T07:29:18;95858.94;;;10.27;87.76
8366;BME280;4220;42.502;24.188;2022-10-30T07:31:45;95855.34;;;10.61;85.97
8366;BME280;4220;42.502;24.188;2022-10-30T07:34:13;95856.78;;;11.03;83.78
8366;BME280;4220;42.502;24.188;2022-10-30T07:36:40;95851.81;;;11.33;82.50
8366;BME280;4220;42.502;24.188;2022-10-30T07:39:07;95850.53;;;11.61;80.85
8366;BME280;4220;42.502;24.188;2022-10-30T07:41:34;95857.59;;;11.87;79.32
8366;BME280;4220;42.502;24.188;2022-10-30T07:44:01;95853.91;;;12.01;77.65
8366;BME280;4220;42.502;24.188;2022-10-30T07:46:29;95843.59;;;12.11;76.58
8366;BME280;4220;42.502;24.188;2022-10-30T07:48:56;95860.25;;;12.31;76.31
8366;BME280;4220;42.502;24.188;2022-10-30T07:51:22;95849.34;;;12.46;76.04
8366;BME280;4220;42.502;24.188;2022-10-30T07:53:49;95851.88;;;12.66;75.61
8366;BME280;4220;42.502;24.188;2022-10-30T07:56:16;95848.84;;;12.87;74.89
8366;BME280;4220;42.502;24.188;2022-10-30T07:58:43;95844.22;;;13.07;73.70
8366;BME280;4220;42.502;24.188;2022-10-30T08:01:10;95839.16;;;13.24;73.26
8366;BME280;4220;42.502;24.188;2022-10-30T08:03:38;95842.22;;;13.45;72.60
8366;BME280;4220;42.502;24.188;2022-10-30T08:06:05;95834.09;;;13.58;72.15
8366;BME280;4220;42.502;24.188;2022-10-30T08:08:32;95833.03;;;13.77;72.05
8366;BME280;4220;42.502;24.188;2022-10-30T08:10:59;95821.75;;;13.94;72.04
8366;BME280;4220;42.502;24.188;2022-10-30T08:13:25;95821.88;;;14.17;71.51
8366;BME280;4220;42.502;24.188;2022-10-30T08:15:52;95789.34;;;14.08;71.70
8366;BME280;4220;42.502;24.188;2022-10-30T08:18:19;95815.88;;;14.51;71.75
8366;BME280;4220;42.502;24.188;2022-10-30T08:20:48;95819.88;;;14.72;71.19
8366;BME280;4220;42.502;24.188;2022-10-30T08:23:15;95823.16;;;14.97;70.74
8366;BME280;4220;42.502;24.188;2022-10-30T08:25:44;95811.94;;;15.18;70.01
8366;BME280;4220;42.502;24.188;2022-10-30T08:28:11;95816.44;;;15.41;69.32
8366;BME280;4220;42.502;24.188;2022-10-30T08:30:38;95810.28;;;15.63;68.44
8366;BME280;4220;42.502;24.188;2022-10-30T08:33:08;95809.19;;;15.88;66.72
8366;BME280;4220;42.502;24.188;2022-10-30T08:35:35;95810.06;;;16.16;63.96
8366;BME280;4220;42.502;24.188;2022-10-30T08:38:03;95806.44;;;16.39;63.04
8366;BME280;4220;42.502;24.188;2022-10-30T08:40:30;95805.56;;;16.62;62.41
8366;BME280;4220;42.502;24.188;2022-10-30T08:42:57;95801.69;;;16.86;61.74
8366;BME280;4220;42.502;24.188;2022-10-30T08:45:24;95792.75;;;17.14;60.45
8366;BME280;4220;42.502;24.188;2022-10-30T08:47:55;95797.84;;;17.48;58.96
8366;BME280;4220;42.502;24.188;2022-10-30T08:50:23;95796.31;;;17.74;57.63
8366;BME280;4220;42.502;24.188;2022-10-30T08:52:49;95794.22;;;17.98;57.77
8366;BME280;4220;42.502;24.188;2022-10-30T08:55:18;95797.50;;;18.48;53.63
8366;BME280;4220;42.502;24.188;2022-10-30T08:57:45;95789.13;;;18.71;53.78
8366;BME280;4220;42.502;24.188;2022-10-30T09:00:12;95784.69;;;18.87;53.34
8366;BME280;4220;42.502;24.188;2022-10-30T09:02:38;95787.91;;;19.16;51.25
8366;BME280;4220;42.502;24.188;2022-10-30T09:05:06;95765.63;;;19.25;51.29
8366;BME280;4220;42.502;24.188;2022-10-30T09:07:33;95763.91;;;19.41;50.94
8366;BME280;4220;42.502;24.188;2022-10-30T09:10:00;95767.25;;;19.63;49.96
8366;BME280;4220;42.502;24.188;2022-10-30T09:12:28;95759.44;;;19.67;50.18
8366;BME280;4220;42.502;24.188;2022-10-30T09:14:55;95770.38;;;20.02;49.54
8366;BME280;4220;42.502;24.188;2022-10-30T09:17:22;95773.19;;;20.27;46.29
8366;BME280;4220;42.502;24.188;2022-10-30T09:19:49;95770.81;;;20.46;45.15
8366;BME280;4220;42.502;24.188;2022-10-30T09:22:15;95757.38;;;20.61;44.98
8366;BME280;4220;42.502;24.188;2022-10-30T09:24:42;95782.72;;;20.75;44.22
8366;BME280;4220;42.502;24.188;2022-10-30T09:27:09;95763.31;;;20.88;43.47
8366;BME280;4220;42.502;24.188;2022-10-30T09:29:37;95757.66;;;20.95;43.29
8366;BME280;4220;42.502;24.188;2022-10-30T09:32:05;95748.75;;;21.04;42.98
8366;BME280;4220;42.502;24.188;2022-10-30T09:34:34;95747.41;;;21.22;43.29
8366;BME280;4220;42.502;24.188;2022-10-30T09:37:01;95741.72;;;21.38;42.84
8366;BME280;4220;42.502;24.188;2022-10-30T09:39:28;95740.63;;;21.55;43.01
8366;BME280;4220;42.502;24.188;2022-10-30T09:42:09;95730.59;;;21.60;44.23
8366;BME280;4220;42.502;24.188;2022-10-30T09:44:48;95727.88;;;21.70;44.84
8366;BME280;4220;42.502;24.188;2022-10-30T09:47:22;95729.72;;;21.80;44.07
8366;BME280;4220;42.502;24.188;2022-10-30T09:49:59;95714.06;;;21.82;43.20
8366;BME280;4220;42.502;24.188;2022-10-30T09:52:34;95717.84;;;21.91;43.53
8366;BME280;4220;42.502;24.188;2022-10-30T09:55:17;95711.88;;;21.94;43.74
8366;BME280;4220;42.502;24.188;2022-10-30T09:57:51;95718.84;;;22.05;43.36
8366;BME280;4220;42.502;24.188;2022-10-30T10:00:26;95706.19;;;21.95;44.01
8366;BME280;4220;42.502;24.188;2022-10-30T10:03:05;95710.28;;;21.83;44.11
8366;BME280;4220;42.502;24.188;2022-10-30T10:05:41;95708.91;;;21.90;43.97
8366;BME280;4220;42.502;24.188;2022-10-30T10:08:13;95712.09;;;22.02;43.46
8366;BME280;4220;42.502;24.188;2022-10-30T10:10:43;95679.41;;;22.04;43.21
8366;BME280;4220;42.502;24.188;2022-10-30T10:13:20;95698.16;;;22.34;42.52
8366;BME280;4220;42.502;24.188;2022-10-30T10:15:53;95700.78;;;22.44;41.58
8366;BME280;4220;42.502;24.188;2022-10-30T10:18:25;95696.38;;;22.53;41.49
8366;BME280;4220;42.502;24.188;2022-10-30T10:20:58;95696.94;;;22.55;41.20
8366;BME280;4220;42.502;24.188;2022-10-30T10:23:32;95694.22;;;22.55;41.83
8366;BME280;4220;42.502;24.188;2022-10-30T10:26:08;95688.78;;;22.60;42.32
8366;BME280;4220;42.502;24.188;2022-10-30T10:28:49;95691.75;;;22.59;41.72
8366;BME280;4220;42.502;24.188;2022-10-30T10:31:27;95686.13;;;22.55;42.54
8366;BME280;4220;42.502;24.188;2022-10-30T10:34:13;95642.19;;;22.35;43.32
8366;BME280;4220;42.502;24.188;2022-10-30T10:36:49;95671.31;;;22.48;42.96
8366;BME280;4220;42.502;24.188;2022-10-30T10:39:30;95676.31;;;22.69;43.58
8366;BME280;4220;42.502;24.188;2022-10-30T10:42:08;95673.06;;;22.67;43.19
8366;BME280;4220;42.502;24.188;2022-10-30T10:44:47;95686.03;;;22.65;43.03
8366;BME280;4220;42.502;24.188;2022-10-30T10:47:45;95679.25;;;22.68;42.61
8366;BME280;4220;42.502;24.188;2022-10-30T10:50:22;95669.78;;;22.70;42.77
8366;BME280;4220;42.502;24.188;2022-10-30T10:52:54;95636.34;;;22.56;42.45
8366;BME280;4220;42.502;24.188;2022-10-30T10:55:26;95660.00;;;22.80;42.51
8366;BME280;4220;42.502;24.188;2022-10-30T10:57:57;95646.13;;;22.86;41.81
8366;BME280;4220;42.502;24.188;2022-10-30T11:00:25;95662.53;;;23.00;41.71
8366;BME280;4220;42.502;24.188;2022-10-30T11:03:00;95664.06;;;23.06;41.63
8366;BME280;4220;42.502;24.188;2022-10-30T11:05:33;95665.59;;;23.17;41.52
8366;BME280;4220;42.502;24.188;2022-10-30T11:08:08;95641.50;;;23.15;41.66
8366;BME280;4220;42.502;24.188;2022-10-30T11:10:36;95630.38;;;23.22;40.96
8366;BME280;4220;42.502;24.188;2022-10-30T11:13:04;95651.84;;;23.37;40.89
8366;BME280;4220;42.502;24.188;2022-10-30T11:15:41;95638.06;;;23.33;40.74
8366;BME280;4220;42.502;24.188;2022-10-30T11:18:12;95620.94;;;23.43;40.21
8366;BME280;4220;42.502;24.188;2022-10-30T11:20:43;95636.31;;;23.48;40.78
8366;BME280;4220;42.502;24.188;2022-10-30T11:23:40;95630.47;;;23.59;40.09
8366;BME280;4220;42.502;24.188;2022-10-30T11:26:32;95618.94;;;23.72;39.34
8366;BME280;4220;42.502;24.188;2022-10-30T11:29:04;95615.59;;;23.99;38.83
8366;BME280;4220;42.502;24.188;2022-10-30T11:31:33;95617.09;;;24.29;38.02
8366;BME280;4220;42.502;24.188;2022-10-30T11:34:19;95628.19;;;24.46;37.76
8366;BME280;4220;42.502;24.188;2022-10-30T11:36:50;95625.19;;;24.47;37.75
8366;BME280;4220;42.502;24.188;2022-10-30T11:39:19;95613.00;;;24.63;36.87
8366;BME280;4220;42.502;24.188;2022-10-30T11:41:54;95609.41;;;24.68;36.60
8366;BME280;4220;42.502;24.188;2022-10-30T11:44:22;95593.09;;;24.54;36.57
8366;BME280;4220;42.502;24.188;2022-10-30T11:46:51;95608.22;;;24.74;36.39
8366;BME280;4220;42.502;24.188;2022-10-30T11:49:42;95553.38;;;24.45;36.11
8366;BME280;4220;42.502;24.188;2022-10-30T11:52:12;95603.84;;;24.78;36.04
8366;BME280;4220;42.502;24.188;2022-10-30T11:54:42;95602.25;;;24.91;36.18
8366;BME280;4220;42.502;24.188;2022-10-30T11:57:18;95601.03;;;24.83;36.03
8366;BME280;4220;42.502;24.188;2022-10-30T11:59:46;95601.63;;;24.80;36.63
8366;BME280;4220;42.502;24.188;2022-10-30T12:02:21;95596.16;;;24.99;36.63
8366;BME280;4220;42.502;24.188;2022-10-30T12:04:53;95597.88;;;25.36;35.19
8366;BME280;4220;42.502;24.188;2022-10-30T12:07:25;95535.94;;;25.10;34.90
8366;BME280;4220;42.502;24.188;2022-10-30T12:09:54;95592.44;;;25.36;34.61
8366;BME280;4220;42.502;24.188;2022-10-30T12:12:27;95562.34;;;25.05;34.48
8366;BME280;4220;42.502;24.188;2022-10-30T12:15:07;95578.97;;;25.30;34.69
8366;BME280;4220;42.502;24.188;2022-10-30T12:17:37;95581.28;;;25.37;34.27
8366;BME280;4220;42.502;24.188;2022-10-30T12:20:11;95577.25;;;25.34;34.20
8366;BME280;4220;42.502;24.188;2022-10-30T12:22:39;95586.00;;;25.31;34.21
8366;BME280;4220;42.502;24.188;2022-10-30T12:25:16;95591.34;;;25.23;34.88
8366;BME280;4220;42.502;24.188;2022-10-30T12:27:46;95585.38;;;25.07;35.42
8366;BME280;4220;42.502;24.188;2022-10-30T12:30:16;95582.66;;;25.07;34.13
8366;BME280;4220;42.502;24.188;2022-10-30T12:32:48;95576.13;;;25.22;34.73
8366;BME280;4220;42.502;24.188;2022-10-30T12:35:37;95581.38;;;25.18;34.78
8366;BME280;4220;42.502;24.188;2022-10-30T12:38:10;95578.53;;;25.23;34.78
8366;BME280;4220;42.502;24.188;2022-10-30T12:40:53;95577.84;;;25.18;34.56
8366;BME280;4220;42.502;24.188;2022-10-30T12:43:25;95540.13;;;24.89;34.81
8366;BME280;4220;42.502;24.188;2022-10-30T12:45:57;95564.25;;;25.04;34.90
8366;BME280;4220;42.502;24.188;2022-10-30T12:48:31;95574.22;;;25.09;35.43
8366;BME280;4220;42.502;24.188;2022-10-30T12:51:12;95570.19;;;25.06;35.04
8366;BME280;4220;42.502;24.188;2022-10-30T12:53:45;95565.47;;;25.12;35.28
8366;BME280;4220;42.502;24.188;2022-10-30T12:56:17;95573.22;;;25.05;35.11
8366;BME280;4220;42.502;24.188;2022-10-30T12:58:48;95578.84;;;24.95;35.63
8366;BME280;4220;42.502;24.188;2022-10-30T13:01:19;95579.22;;;25.02;35.16
8366;BME280;4220;42.502;24.188;2022-10-30T13:03:55;95584.56;;;24.93;35.25
8366;BME280;4220;42.502;24.188;2022-10-30T13:06:27;95572.59;;;24.94;35.46
8366;BME280;4220;42.502;24.188;2022-10-30T13:09:03;95566.59;;;25.11;35.50
8366;BME280;4220;42.502;24.188;2022-10-30T13:11:39;95559.25;;;25.25;34.82
8366;BME280;4220;42.502;24.188;2022-10-30T13:14:15;95563.47;;;25.17;34.68
8366;BME280;4220;42.502;24.188;2022-10-30T13:16:42;95565.09;;;25.18;34.45
8366;BME280;4220;42.502;24.188;2022-10-30T13:19:10;95553.44;;;25.18;34.32
8366;BME280;4220;42.502;24.188;2022-10-30T13:21:44;95576.84;;;25.41;34.11
8366;BME280;4220;42.502;24.188;2022-10-30T13:24:17;95551.38;;;25.23;34.27
8366;BME280;4220;42.502;24.188;2022-10-30T13:26:50;95564.38;;;25.26;34.10
8366;BME280;4220;42.502;24.188;2022-10-30T13:29:26;95564.19;;;25.23;33.59